Startpagina
METAR-TAF:

METAR-TAF

Vliegvelden :

Lelystad Airport

Lelystad, Nederland

breedte: 52-27-37N, lengte: 005-31-38E, hoogte: -4 m

Actueel weer

Dit bericht is 9 minuten geleden gemaakt, om 22:25 UTC
Wind 1 kt uit het noorden
Temperatuur 3°C
Vochtigheid 87%
Druk 1034 hPa
Zicht 10 km of meer
Geheel bewolkt op 1700 ft

METAR: EHLE 242225Z AUTO 01001KT 9999 OVC017 03/01 Q1034

Tijdstip: 23:34 (22:34 UTC)

Verwachting

Dit bericht is 5 uur en het 21 minuten geleden gemaakt, om 17:13 UTC
Verwachting geldig van 24 om 18 UTC tot 25 om 24 UTC
Wind 2 kt uit variabele richting
Zicht 10 km of meer
Geheel bewolkt op 1800 ft

TAF: EHLE 241713Z 2418/2524 VRB02KT 9999 OVC018

Waarnemingen en weersverwachtingen van meer dan 4000 vliegvelden (METAR en TAF).

De beschikbare stations zijn de gele en rode punten op de kaart.

Ga met uw muis naar het station om de naam te zien.

Klik dan om waarnemingen en weersverwachtingen te zien.

kaart wijzigen: klik op de groene knoppen met een zwart kruis om in te zoomen, op de groene knop met een streepje om uit te zoomen of op de groene pijlen voor aangrenzende kaarten.


METAR-TAF: